Time;durP1;ratioP1;P1;durP2;ratioP2;P2;SDS_P1;SDS_P2;PMS_P1;PMS_P2;Temp;Humidity;BMP_temperature;BMP_pressure;BME280_temperature;BME280_humidity;BME280_pressure;Samples;Min_cycle;Max_cycle;Signal;HPM_P1;HPM_P2
2023/07/25 00:01:27;;;;;;;18.53;7.60;;;;;;;24.18;47.51;99736.92;126739;1086;104248;-77
2023/07/25 00:03:55;;;;;;;17.80;7.47;;;;;;;24.16;47.60;99734.30;126922;1086;104219;-79
2023/07/25 00:06:24;;;;;;;19.13;7.23;;;;;;;24.15;47.73;99732.56;126968;1086;102066;-78
2023/07/25 00:08:52;;;;;;;18.07;6.80;;;;;;;24.12;48.11;99737.13;126917;1086;102232;-78
2023/07/25 00:11:21;;;;;;;18.80;7.40;;;;;;;24.13;47.84;99736.20;126989;1086;104162;-78
2023/07/25 00:13:50;;;;;;;17.53;7.93;;;;;;;24.14;48.27;99724.57;126745;1089;101876;-79
2023/07/25 00:16:19;;;;;;;19.67;7.67;;;;;;;24.14;48.16;99721.89;127188;1086;102108;-78
2023/07/25 00:18:47;;;;;;;15.60;6.63;;;;;;;24.13;48.32;99729.03;126899;1086;104149;-78
2023/07/25 00:21:16;;;;;;;19.77;7.77;;;;;;;24.13;48.45;99723.67;126868;1086;104258;-78
2023/07/25 00:23:44;;;;;;;20.00;7.23;;;;;;;24.13;48.49;99725.48;126758;1089;104203;-78
2023/07/25 00:26:13;;;;;;;15.90;6.70;;;;;;;24.12;48.76;99727.30;126928;1086;104159;-78
2023/07/25 00:28:42;;;;;;;17.30;7.47;;;;;;;24.11;48.96;99716.63;126843;1086;103581;-78
2023/07/25 00:31:10;;;;;;;19.43;7.40;;;;;;;24.11;48.97;99713.95;126776;1086;101812;-79
2023/07/25 00:33:39;;;;;;;15.07;6.97;;;;;;;24.12;48.95;99710.32;126721;1086;104245;-77
2023/07/25 00:36:07;;;;;;;16.97;7.17;;;;;;;24.08;48.91;99706.02;126967;1086;101868;-79
2023/07/25 00:38:36;;;;;;;15.33;6.60;;;;;;;24.07;49.19;99705.11;126926;1086;102016;-78
2023/07/25 00:41:05;;;;;;;15.73;6.97;;;;;;;24.06;49.12;99700.70;126897;1086;102344;-79
2023/07/25 00:43:33;;;;;;;19.03;7.17;;;;;;;24.05;49.52;99701.62;126737;1086;102196;-78
2023/07/25 00:46:02;;;;;;;20.23;6.40;;;;;;;24.03;49.61;99693.63;126888;1086;104235;-78
2023/07/25 00:48:31;;;;;;;16.17;6.20;;;;;;;24.02;49.79;99685.64;126850;1086;102213;-79
2023/07/25 00:51:01;;;;;;;18.00;5.97;;;;;;;24.00;49.79;99688.37;126872;1085;101920;-79
2023/07/25 00:53:30;;;;;;;14.50;6.80;;;;;;;23.98;50.13;99683.97;126727;1086;101912;-79
2023/07/25 00:56:01;;;;;;;16.60;6.20;;;;;;;23.95;50.17;99684.97;126753;1086;102077;-79
2023/07/25 00:58:29;;;;;;;10.90;6.00;;;;;;;23.96;50.38;99692.06;126678;1086;104366;-79
2023/07/25 01:01:03;;;;;;;13.60;5.90;;;;;;;23.98;50.42;99697.38;126840;1086;104665;-79
2023/07/25 01:03:34;;;;;;;15.47;6.10;;;;;;;23.98;50.40;99695.59;126963;1085;101791;-79
2023/07/25 01:06:05;;;;;;;16.40;6.40;;;;;;;23.99;50.37;99694.64;126953;1086;102050;-79
2023/07/25 01:08:33;;;;;;;10.93;5.77;;;;;;;24.00;50.81;99691.05;126892;1086;104156;-79
2023/07/25 01:11:02;;;;;;;13.13;6.37;;;;;;;23.99;50.95;99681.24;126994;1086;104151;-80
2023/07/25 01:13:30;;;;;;;16.07;6.53;;;;;;;23.98;50.87;99687.55;126989;1086;101809;-80
2023/07/25 01:15:59;;;;;;;16.70;6.77;;;;;;;23.97;51.17;99685.79;127021;1086;104283;-79
2023/07/25 01:18:29;;;;;;;11.80;5.90;;;;;;;23.97;51.05;99684.92;126742;1086;101954;-79
2023/07/25 01:20:58;;;;;;;13.50;5.93;;;;;;;23.93;51.36;99692.16;126832;1086;104197;-79
2023/07/25 01:23:28;;;;;;;15.00;5.67;;;;;;;23.90;51.58;99688.71;126883;1086;102073;-79
2023/07/25 01:25:57;;;;;;;12.80;6.13;;;;;;;23.86;51.75;99688.81;126955;1085;101893;-79
2023/07/25 01:28:27;;;;;;;11.67;5.97;;;;;;;23.85;51.81;99680.82;126876;1086;101915;-79
2023/07/25 01:30:56;;;;;;;14.43;6.10;;;;;;;23.85;52.05;99681.69;126857;1086;104283;-79
2023/07/25 01:33:25;;;;;;;16.73;6.63;;;;;;;23.84;52.12;99674.59;127088;1086;101996;-78
2023/07/25 01:35:53;;;;;;;13.20;5.50;;;;;;;23.86;52.32;99680.77;126986;1086;104239;-79
2023/07/25 01:38:22;;;;;;;11.60;5.90;;;;;;;23.86;52.36;99679.91;127188;1086;101968;-79
2023/07/25 01:40:51;;;;;;;12.53;5.73;;;;;;;23.86;52.34;99685.27;127198;1086;104193;-79
2023/07/25 01:43:19;;;;;;;12.77;5.80;;;;;;;23.85;52.49;99688.86;127702;1086;101893;-78
2023/07/25 01:45:48;;;;;;;12.57;5.70;;;;;;;23.84;52.43;99684.41;128026;1086;101749;-79
2023/07/25 01:48:17;;;;;;;13.37;5.60;;;;;;;23.83;52.60;99683.52;127977;1086;104145;-79
2023/07/25 01:50:45;;;;;;;15.27;6.37;;;;;;;23.81;52.84;99684.48;128388;1085;102261;-79
2023/07/25 01:53:14;;;;;;;12.27;6.30;;;;;;;23.79;53.25;99683.66;128093;1086;103407;-79
2023/07/25 01:55:43;;;;;;;9.40;5.60;;;;;;;23.77;53.38;99693.55;127050;1086;102242;-79
2023/07/25 01:58:12;;;;;;;12.30;6.13;;;;;;;23.76;53.31;99699.83;127209;1086;104182;-81
2023/07/25 02:00:40;;;;;;;12.90;6.27;;;;;;;23.74;53.61;99705.23;126834;1086;102217;-78
2023/07/25 02:03:10;;;;;;;13.50;6.10;;;;;;;23.74;53.66;99704.37;127100;1086;104184;-78
2023/07/25 02:05:39;;;;;;;10.63;5.83;;;;;;;23.73;53.82;99700.79;127010;1086;101833;-79
2023/07/25 02:08:10;;;;;;;10.97;6.00;;;;;;;23.74;53.86;99704.37;127008;1086;102163;-78
2023/07/25 02:10:38;;;;;;;13.20;5.57;;;;;;;23.74;53.99;99699.88;127018;1086;104155;-79
2023/07/25 02:13:07;;;;;;;13.70;5.57;;;;;;;23.72;54.21;99695.48;126859;1086;104177;-78
2023/07/25 02:15:36;;;;;;;12.83;5.83;;;;;;;23.71;54.43;99691.94;126879;1086;102211;-78
2023/07/25 02:18:05;;;;;;;11.03;5.40;;;;;;;23.71;54.46;99685.72;127025;1086;102045;-78
2023/07/25 02:20:34;;;;;;;12.87;5.63;;;;;;;23.71;54.52;99688.39;126909;1086;104129;-80
2023/07/25 02:23:03;;;;;;;16.47;5.97;;;;;;;23.67;54.53;99683.13;127172;1086;104169;-80
2023/07/25 02:25:32;;;;;;;12.17;6.10;;;;;;;23.65;54.45;99682.31;127037;1086;102383;-80
2023/07/25 02:28:00;;;;;;;15.67;6.20;;;;;;;23.62;54.44;99679.73;127090;1086;102307;-80
2023/07/25 02:30:29;;;;;;;15.57;6.67;;;;;;;23.58;54.76;99682.55;127184;1086;104149;-79
2023/07/25 02:32:58;;;;;;;12.97;6.57;;;;;;;23.56;54.65;99687.95;127070;1085;101925;-79
2023/07/25 02:35:26;;;;;;;16.07;6.90;;;;;;;23.55;55.06;99688.00;126731;1086;104194;-78
2023/07/25 02:37:55;;;;;;;13.23;6.67;;;;;;;23.52;54.72;99686.28;126983;1085;104184;-78
2023/07/25 02:40:26;;;;;;;19.33;6.80;;;;;;;23.51;55.06;99685.41;127115;1086;101814;-79
2023/07/25 02:42:55;;;;;;;14.03;7.00;;;;;;;23.50;55.06;99686.33;127133;1086;104299;-79
2023/07/25 02:45:24;;;;;;;15.33;7.33;;;;;;;23.51;54.98;99681.84;127059;1086;104175;-79
2023/07/25 02:47:52;;;;;;;15.67;6.60;;;;;;;23.48;55.38;99679.25;126863;1085;102325;-79
2023/07/25 02:50:21;;;;;;;10.77;5.80;;;;;;;23.47;55.56;99669.49;126959;1086;102073;-79
2023/07/25 02:52:52;;;;;;;12.70;5.87;;;;;;;23.45;55.22;99680.25;126984;1085;102070;-79
2023/07/25 02:55:20;;;;;;;16.57;6.60;;;;;;;23.45;55.71;99671.31;127176;1086;104268;-79
2023/07/25 02:57:49;;;;;;;16.70;6.90;;;;;;;23.43;55.34;99679.39;127084;1086;104162;-80
2023/07/25 03:00:18;;;;;;;15.20;6.70;;;;;;;23.39;56.02;99666.14;127069;1086;104181;-79
2023/07/25 03:02:46;;;;;;;16.40;6.57;;;;;;;23.38;55.99;99667.95;126992;1086;102304;-80
2023/07/25 03:05:15;;;;;;;18.67;6.87;;;;;;;23.36;56.12;99664.46;127172;1086;102034;-79
2023/07/25 03:07:44;;;;;;;13.33;6.20;;;;;;;23.35;56.04;99659.16;126959;1086;102539;-79
2023/07/25 03:10:12;;;;;;;13.75;6.50;;;;;;;23.32;55.90;99652.95;126976;1086;102159;-78
2023/07/25 03:12:43;;;;;;;13.00;6.93;;;;;;;23.31;56.32;99651.22;127159;1086;102321;-79
2023/07/25 03:15:12;;;;;;;15.30;6.40;;;;;;;23.33;56.24;99657.39;127299;1086;104155;-79
2023/07/25 03:17:41;;;;;;;14.20;6.50;;;;;;;23.33;56.35;99656.52;127190;1086;104217;-80
2023/07/25 03:20:12;;;;;;;16.13;6.37;;;;;;;23.36;56.58;99666.23;126943;1089;104194;-79
2023/07/25 03:22:41;;;;;;;15.87;6.70;;;;;;;23.37;56.52;99668.00;127713;1086;101874;-79
2023/07/25 03:25:10;;;;;;;17.20;6.40;;;;;;;23.37;56.59;99665.33;127071;1086;104185;-79
2023/07/25 03:27:39;;;;;;;12.57;6.37;;;;;;;23.38;56.86;99667.09;127055;1086;102012;-79
2023/07/25 03:30:08;;;;;;;15.70;6.60;;;;;;;23.38;56.88;99669.77;126980;1086;104602;-80
2023/07/25 03:32:39;;;;;;;12.03;6.13;;;;;;;23.41;57.22;99667.00;127164;1086;101942;-79
2023/07/25 03:35:08;;;;;;;12.60;5.90;;;;;;;23.44;57.31;99666.91;127186;1086;102111;-79
2023/07/25 03:37:37;;;;;;;14.87;6.00;;;;;;;23.48;57.16;99661.41;127117;1086;104196;-79
2023/07/25 03:40:08;;;;;;;16.83;6.77;;;;;;;23.52;57.38;99662.19;127287;1086;102045;-79
2023/07/25 03:42:37;;;;;;;13.80;6.30;;;;;;;23.54;57.45;99654.97;127389;1085;103147;-78
2023/07/25 03:45:08;;;;;;;14.03;6.67;;;;;;;23.54;57.72;99652.30;127629;1086;102008;-79
2023/07/25 03:47:37;;;;;;;13.20;5.60;;;;;;;23.59;57.77;99654.83;127121;1086;102069;-79
2023/07/25 03:50:08;;;;;;;16.73;6.27;;;;;;;23.61;57.54;99651.19;126740;1086;104644;-78
2023/07/25 03:52:37;;;;;;;12.77;5.97;;;;;;;23.65;57.94;99657.31;126759;1086;104331;-78
2023/07/25 03:55:07;;;;;;;13.55;6.45;;;;;;;23.67;57.65;99663.52;126491;1086;104158;-77
2023/07/25 03:57:39;;;;;;;11.60;6.03;;;;;;;23.65;57.76;99658.21;127348;1086;101838;-77
2023/07/25 04:00:09;;;;;;;12.90;6.05;;;;;;;23.68;58.03;99667.93;126772;1086;104250;-78
2023/07/25 04:02:40;;;;;;;;;;;;;;;23.67;57.63;99668.88;127590;1086;102073;-76
2023/07/25 04:05:10;;;;;;;16.77;6.33;;;;;;;23.69;58.04;99673.23;126336;1086;104185;-75
2023/07/25 04:07:39;;;;;;;12.63;6.17;;;;;;;23.74;57.98;99667.73;126027;1089;104205;-75
2023/07/25 04:10:10;;;;;;;15.07;5.93;;;;;;;23.76;58.11;99663.20;126011;1086;103605;-76
2023/07/25 04:12:39;;;;;;;15.03;6.37;;;;;;;23.81;58.05;99663.05;126066;1086;101929;-76
2023/07/25 04:15:11;;;;;;;18.15;6.90;;;;;;;23.84;58.47;99652.27;125997;1086;104254;-72
2023/07/25 04:17:40;;;;;;;13.93;6.07;;;;;;;23.92;58.41;99654.70;126108;1086;104229;-76
2023/07/25 04:20:12;;;;;;;14.40;6.40;;;;;;;23.98;58.20;99644.69;126161;1086;101889;-74
2023/07/25 04:22:40;;;;;;;10.83;6.17;;;;;;;24.05;58.26;99651.56;126475;1086;102475;-75
2023/07/25 04:25:12;;;;;;;14.10;6.27;;;;;;;24.12;58.29;99654.94;126697;1086;104165;-74
2023/07/25 04:27:41;;;;;;;13.35;6.50;;;;;;;24.18;58.29;99660.09;126533;1086;104306;-74
2023/07/25 04:30:11;;;;;;;10.67;5.87;;;;;;;24.24;58.35;99656.31;126612;1086;102422;-76
2023/07/25 04:32:40;;;;;;;13.73;6.13;;;;;;;24.29;58.59;99653.47;126634;1086;104196;-75
2023/07/25 04:35:09;;;;;;;15.00;6.47;;;;;;;24.32;58.57;99653.38;126333;1086;101854;-74
2023/07/25 04:37:38;;;;;;;16.77;6.47;;;;;;;24.35;58.35;99648.77;126592;1086;104440;-74
2023/07/25 04:40:09;;;;;;;19.00;6.85;;;;;;;24.41;58.90;99642.33;126522;1086;104159;-75
2023/07/25 04:42:38;;;;;;;11.63;6.80;;;;;;;24.45;58.51;99643.09;126788;1086;104223;-76
2023/07/25 04:45:11;;;;;;;14.70;6.70;;;;;;;24.48;58.58;99648.34;126171;1086;101915;-75
2023/07/25 04:47:41;;;;;;;;;;;;;;;24.51;58.08;99651.81;126463;1086;101858;-75
2023/07/25 04:50:11;;;;;;;15.17;6.70;;;;;;;24.55;58.86;99653.44;126670;1085;102341;-76
2023/07/25 04:52:54;;;;;;;15.15;6.60;;;;;;;24.60;58.51;99649.76;127055;1086;102091;-76
2023/07/25 04:55:23;;;;;;;14.83;6.50;;;;;;;24.64;58.56;99638.86;126673;1086;104264;-79
2023/07/25 04:57:51;;;;;;;16.13;6.90;;;;;;;24.69;58.52;99634.20;127163;1086;104241;-78
2023/07/25 05:00:20;;;;;;;11.83;6.47;;;;;;;24.75;58.70;99636.66;127088;1086;104259;-78
2023/07/25 05:02:49;;;;;;;17.20;7.10;;;;;;;24.76;58.77;99625.02;126890;1086;102706;-80
2023/07/25 05:05:19;;;;;;;15.93;7.03;;;;;;;24.80;58.97;99628.45;127029;1086;104153;-79
2023/07/25 05:07:48;;;;;;;15.80;7.07;;;;;;;24.86;58.95;99621.98;127904;1085;101762;-78
2023/07/25 05:10:17;;;;;;;17.53;7.27;;;;;;;24.94;58.66;99623.43;126514;1086;104257;-76
2023/07/25 05:12:46;;;;;;;14.10;7.00;;;;;;;25.02;58.61;99617.78;127790;1086;104166;-82
2023/07/25 05:15:14;;;;;;;15.93;6.80;;;;;;;25.06;58.68;99614.05;126784;1086;104357;-79
2023/07/25 05:17:43;;;;;;;13.23;7.00;;;;;;;25.11;58.85;99616.56;126544;1086;104169;-79
2023/07/25 05:20:14;;;;;;;17.50;7.07;;;;;;;25.16;58.48;99617.25;127834;1085;104168;-76
2023/07/25 05:22:43;;;;;;;16.17;7.17;;;;;;;25.24;58.58;99625.91;126984;1086;104228;-76
2023/07/25 05:25:15;;;;;;;20.80;7.60;;;;;;;25.29;58.81;99632.00;126953;1086;119120;-77
2023/07/25 05:27:43;;;;;;;16.27;7.53;;;;;;;25.36;58.28;99637.13;127658;1085;102320;-77
2023/07/25 05:30:12;;;;;;;16.73;7.40;;;;;;;25.42;59.04;99640.44;127074;1086;104688;-78
2023/07/25 05:32:42;;;;;;;14.47;7.00;;;;;;;25.46;58.49;99644.77;126490;1086;104257;-80
2023/07/25 05:35:13;;;;;;;15.97;7.73;;;;;;;25.56;58.78;99639.03;127746;1086;102231;-84
2023/07/25 05:38:07;;;;;;;14.80;7.33;;;;;;;25.65;58.66;99639.53;127825;1086;104253;-83
2023/07/25 05:40:45;;;;;;;17.80;7.60;;;;;;;25.72;58.39;99641.97;127725;1086;101760;-83
2023/07/25 05:43:24;;;;;;;16.10;7.80;;;;;;;25.79;57.91;99636.28;128009;1086;101803;-80
2023/07/25 05:45:55;;;;;;;16.67;8.10;;;;;;;25.88;57.98;99626.09;127874;1086;111197;-81
2023/07/25 05:48:48;;;;;;;16.03;7.90;;;;;;;25.95;57.93;99624.91;127543;1086;101929;-82
2023/07/25 05:51:20;;;;;;;20.43;8.23;;;;;;;26.02;57.74;99623.72;127702;1090;104232;-84
2023/07/25 05:53:54;;;;;;;18.63;7.97;;;;;;;26.13;57.70;99624.16;127457;1086;101801;-82
2023/07/25 05:56:23;;;;;;;21.27;9.13;;;;;;;26.31;57.84;99619.79;127349;1086;101813;-79
2023/07/25 05:58:55;;;;;;;;;;;;;;;26.39;57.57;99614.08;127458;1086;101779;-78
2023/07/25 06:01:24;;;;;;;17.77;8.23;;;;;;;26.45;57.86;99619.19;128147;1085;101570;-80
2023/07/25 06:03:55;;;;;;;17.00;8.30;;;;;;;26.49;57.80;99610.06;127490;1086;102495;-80
2023/07/25 06:06:48;;;;;;;17.17;8.47;;;;;;;26.55;57.67;99596.34;127604;1086;101851;-80
2023/07/25 06:09:17;;;;;;;16.17;7.83;;;;;;;26.66;57.40;99584.23;127697;1085;101735;-86
2023/07/25 06:11:47;;;;;;;17.20;8.37;;;;;;;26.75;56.98;99588.33;127468;1086;101758;-86
2023/07/25 06:14:20;;;;;;;14.20;7.77;;;;;;;26.83;56.92;99573.59;127409;1086;102006;-84
2023/07/25 06:16:52;;;;;;;16.45;8.53;;;;;;;26.96;56.74;99565.81;128309;1085;102376;-79
2023/07/25 06:19:24;;;;;;;16.10;7.50;;;;;;;27.05;55.87;99569.87;128161;1085;102063;-81
2023/07/25 06:21:55;;;;;;;16.43;8.10;;;;;;;27.15;56.23;99560.42;127433;1086;104159;-77
2023/07/25 06:24:24;;;;;;;18.33;8.20;;;;;;;27.22;55.76;99551.11;127355;1086;104174;-82
2023/07/25 06:26:53;;;;;;;18.63;8.23;;;;;;;27.31;55.27;99544.42;128184;1086;101752;-84
2023/07/25 06:29:35;;;;;;;14.97;7.77;;;;;;;27.44;55.49;99539.30;128285;1085;102053;-81
2023/07/25 06:32:09;;;;;;;16.50;8.23;;;;;;;27.55;54.93;99545.05;128240;1085;101773;-82
2023/07/25 06:34:43;;;;;;;18.15;8.03;;;;;;;27.65;55.06;99547.28;128330;1085;104027;-85
2023/07/25 06:37:23;;;;;;;17.40;8.50;;;;;;;27.79;54.30;99540.23;127507;1086;104162;-83
2023/07/25 06:39:55;;;;;;;19.90;8.67;;;;;;;27.92;53.86;99553.08;127517;1089;101836;-79
2023/07/25 06:42:37;;;;;;;18.70;8.27;;;;;;;28.02;53.64;99556.20;127229;1086;102541;-78
2023/07/25 06:45:15;;;;;;;17.17;9.03;;;;;;;28.12;53.17;99557.48;127656;1086;104423;-86
2023/07/25 06:47:49;;;;;;;;;;;;;;;28.23;53.22;99563.17;128328;1085;101608;-83
2023/07/25 06:50:35;;;;;;;;;;;;;;;28.37;53.01;99564.29;127436;1086;102486;-81
2023/07/25 06:53:05;;;;;;;17.47;7.97;;;;;;;28.45;52.79;99560.20;128279;1085;104169;-82
2023/07/25 06:55:44;;;;;;;17.27;8.30;;;;;;;28.55;52.91;99551.63;127519;1086;102119;-83
2023/07/25 06:58:17;;;;;;;17.37;8.23;;;;;;;28.75;52.46;99555.98;127765;1086;104165;-85
2023/07/25 07:04:15;;;;;;;16.93;7.40;;;;;;;29.13;51.78;99564.66;128865;1085;101769;-84
2023/07/25 07:07:28;;;;;;;15.00;7.70;;;;;;;29.28;51.37;99578.28;127136;1090;102363;-82
2023/07/25 07:10:17;;;;;;;16.80;7.53;;;;;;;29.43;51.55;99574.71;127147;1089;102504;-84
2023/07/25 07:13:16;;;;;;;15.70;7.37;;;;;;;29.61;50.72;99580.00;127505;1090;102864;-83
2023/07/25 07:15:58;;;;;;;14.37;7.73;;;;;;;29.70;50.56;99574.06;127447;1089;104433;-81
2023/07/25 07:18:27;;;;;;;15.17;7.97;;;;;;;29.85;50.35;99577.75;127539;1089;104232;-85
2023/07/25 07:20:56;;;;;;;15.55;7.80;;;;;;;30.00;50.07;99575.98;127595;1089;101688;-77
2023/07/25 07:23:25;;;;;;;12.60;6.87;;;;;;;30.08;49.94;99574.53;127728;1089;101999;-76
2023/07/25 07:25:57;;;;;;;18.43;7.40;;;;;;;30.23;49.55;99572.75;127418;1089;102450;-79
2023/07/25 07:28:28;;;;;;;17.17;7.80;;;;;;;30.37;48.89;99566.50;127423;1088;104248;-85
2023/07/25 07:31:02;;;;;;;15.32;7.30;;;;;;;30.55;48.66;99572.63;127228;1089;102128;-81
2023/07/25 07:33:34;;;;;;;14.13;7.10;;;;;;;30.71;48.35;99566.25;127564;1086;102102;-78
2023/07/25 07:36:07;;;;;;;13.40;6.93;;;;;;;30.90;47.73;99563.24;127141;1086;104206;-81
2023/07/25 07:38:36;;;;;;;14.90;7.30;;;;;;;31.04;47.51;99560.58;127226;1086;104162;-82
2023/07/25 07:41:09;;;;;;;16.20;7.70;;;;;;;31.16;46.84;99554.34;127958;1086;101845;-86
2023/07/25 07:43:42;;;;;;;13.47;7.30;;;;;;;31.30;46.15;99542.59;127127;1086;104104;-88
2023/07/25 07:46:13;;;;;;;19.17;7.70;;;;;;;31.41;46.18;99538.32;127566;1086;101845;-80
2023/07/25 07:48:43;;;;;;;15.60;7.23;;;;;;;31.54;45.28;99539.29;127174;1086;104159;-85
2023/07/25 07:51:28;;;;;;;16.37;7.60;;;;;;;31.68;45.07;99547.36;128604;1085;102188;-87
2023/07/25 07:53:59;;;;;;;17.87;7.90;;;;;;;31.81;44.35;99550.10;127305;1086;104219;-78
2023/07/25 07:56:37;;;;;;;17.37;7.77;;;;;;;32.00;43.32;99565.13;126888;1086;101998;-85
2023/07/25 07:59:07;;;;;;;14.18;7.60;;;;;;;32.18;42.92;99563.89;128366;1085;101805;-81
2023/07/25 08:01:40;;;;;;;15.47;7.10;;;;;;;32.41;43.04;99559.58;126968;1086;104197;-82
2023/07/25 08:04:11;;;;;;;13.98;7.50;;;;;;;32.51;43.06;99550.78;127056;1086;102095;-81
2023/07/25 08:06:41;;;;;;;15.43;7.80;;;;;;;32.65;42.77;99558.84;126820;1086;104264;-82
2023/07/25 08:09:25;;;;;;;13.40;7.13;;;;;;;32.73;42.38;99547.44;127417;1085;104164;-80
2023/07/25 08:12:10;;;;;;;13.48;7.22;;;;;;;32.82;41.98;99560.35;127409;1086;102037;-81
2023/07/25 08:14:44;;;;;;;17.67;7.90;;;;;;;32.99;41.31;99560.96;127563;1086;101855;-83
2023/07/25 08:17:18;;;;;;;17.20;7.97;;;;;;;33.12;40.53;99567.25;127645;1086;104129;-83
2023/07/25 08:19:49;;;;;;;17.20;7.70;;;;;;;33.16;40.05;99566.06;127732;1086;101925;-78
2023/07/25 08:22:19;;;;;;;14.87;7.27;;;;;;;33.23;40.72;99553.77;127983;1086;102340;-79
2023/07/25 08:24:57;;;;;;;14.17;7.37;;;;;;;33.31;40.04;99528.73;128113;1086;102130;-78
2023/07/25 08:27:30;;;;;;;16.20;7.80;;;;;;;33.44;39.54;99531.39;127440;1086;104184;-80
2023/07/25 08:30:00;;;;;;;15.70;7.67;;;;;;;33.57;38.53;99526.77;128063;1086;102392;-79
2023/07/25 08:32:30;;;;;;;16.53;7.93;;;;;;;33.71;38.96;99530.31;128017;1086;102032;-77
2023/07/25 08:35:01;;;;;;;16.60;8.00;;;;;;;33.82;39.07;99527.66;127196;1086;104094;-81
2023/07/25 08:37:31;;;;;;;18.00;8.07;;;;;;;33.93;38.51;99511.36;127485;1086;101758;-86
2023/07/25 08:40:02;;;;;;;14.43;7.10;;;;;;;33.98;38.20;99508.28;128462;1085;102075;-83
2023/07/25 08:42:36;;;;;;;13.70;7.60;;;;;;;34.11;37.70;99487.30;127881;1086;101749;-86
2023/07/25 08:45:11;;;;;;;13.20;7.23;;;;;;;34.28;37.35;99479.67;127838;1086;104162;-82
2023/07/25 08:47:57;;;;;;;12.97;6.83;;;;;;;34.37;37.67;99477.07;127590;1086;102330;-85
2023/07/25 08:50:32;;;;;;;17.90;8.07;;;;;;;34.52;37.31;99457.78;127925;1086;101789;-81
2023/07/25 08:53:13;;;;;;;15.70;7.70;;;;;;;34.68;37.13;99449.22;127424;1086;104152;-88
2023/07/25 08:55:43;;;;;;;;;;;;;;;34.83;37.63;99428.04;128268;1085;101620;-82
2023/07/25 08:58:18;;;;;;;20.37;7.40;;;;;;;34.93;37.16;99420.84;128029;1086;104135;-81
2023/07/25 09:00:48;;;;;;;15.70;7.20;;;;;;;35.03;36.76;99397.29;127248;1086;102093;-81
2023/07/25 09:03:18;;;;;;;15.80;7.63;;;;;;;35.23;37.08;99389.27;127845;1086;104149;-81
2023/07/25 09:05:48;;;;;;;20.17;7.63;;;;;;;35.42;36.79;99385.86;126612;1089;102253;-81
2023/07/25 09:08:17;;;;;;;14.90;7.23;;;;;;;35.54;36.41;99386.67;126932;1086;102070;-82
2023/07/25 09:10:49;;;;;;;17.73;7.83;;;;;;;35.57;35.59;99387.27;126970;1086;104245;-81
2023/07/25 09:13:20;;;;;;;15.43;8.00;;;;;;;35.64;35.13;99396.66;126676;1086;104088;-83
2023/07/25 09:15:49;;;;;;;16.93;8.20;;;;;;;35.71;33.97;99391.52;126768;1086;104254;-78
2023/07/25 09:18:19;;;;;;;15.83;8.43;;;;;;;35.85;34.28;99386.77;126946;1086;102722;-81
2023/07/25 09:20:49;;;;;;;17.57;8.80;;;;;;;35.90;34.36;99382.61;126857;1086;102408;-80
2023/07/25 09:23:21;;;;;;;19.17;8.43;;;;;;;35.89;33.82;99390.94;127820;1086;104050;-80
2023/07/25 09:26:03;;;;;;;17.60;8.63;;;;;;;35.88;33.43;99389.23;128169;1086;104194;-79
2023/07/25 09:28:32;;;;;;;15.03;8.23;;;;;;;35.80;32.93;99387.17;128402;1086;102070;-79
2023/07/25 09:31:04;;;;;;;15.73;8.20;;;;;;;35.75;32.57;99386.69;127949;1086;101778;-81
2023/07/25 09:33:34;;;;;;;17.97;8.90;;;;;;;35.84;32.43;99385.02;127178;1086;104153;-78
2023/07/25 09:36:07;;;;;;;18.57;9.17;;;;;;;35.89;32.32;99388.20;126569;1086;104204;-79
2023/07/25 09:38:36;;;;;;;17.03;9.10;;;;;;;35.80;31.45;99387.17;126425;1086;104245;-82
2023/07/25 09:41:08;;;;;;;18.40;9.07;;;;;;;35.74;31.35;99380.34;127276;1086;101777;-82
2023/07/25 09:43:36;;;;;;;18.20;8.63;;;;;;;35.71;30.52;99377.03;127679;1086;104247;-81
2023/07/25 09:46:07;;;;;;;16.30;8.50;;;;;;;35.79;29.97;99377.24;127028;1086;102173;-78
2023/07/25 09:48:36;;;;;;;18.40;8.73;;;;;;;35.92;30.36;99374.29;127372;1086;101793;-83
2023/07/25 09:51:06;;;;;;;16.37;8.17;;;;;;;35.87;30.14;99379.30;128116;1086;104156;-83
2023/07/25 09:53:38;;;;;;;16.02;8.50;;;;;;;35.85;30.18;99381.31;128720;1085;104056;-78
2023/07/25 09:56:07;;;;;;;16.10;8.57;;;;;;;35.87;29.97;99379.30;126942;1086;104165;-79
2023/07/25 09:58:37;;;;;;;18.47;8.30;;;;;;;35.79;29.96;99382.70;127984;1086;104393;-80
2023/07/25 10:01:09;;;;;;;15.50;8.37;;;;;;;35.73;29.53;99370.45;126897;1086;104232;-87
2023/07/25 10:03:38;;;;;;;17.40;7.85;;;;;;;35.71;29.46;99366.97;127155;1086;101803;-82
2023/07/25 10:06:11;;;;;;;16.40;8.13;;;;;;;35.70;29.88;99361.64;127630;1086;101952;-85
2023/07/25 10:08:41;;;;;;;16.63;7.80;;;;;;;35.71;30.20;99363.38;127161;1086;104172;-81
2023/07/25 10:11:13;;;;;;;16.20;7.60;;;;;;;35.69;29.74;99355.33;127383;1086;102315;-83
2023/07/25 10:13:45;;;;;;;17.20;8.20;;;;;;;35.73;29.64;99353.19;128285;1086;104162;-85
2023/07/25 10:16:15;;;;;;;14.33;7.53;;;;;;;35.86;29.65;99344.81;127732;1089;101661;-82
2023/07/25 10:18:52;;;;;;;14.93;7.57;;;;;;;35.94;29.47;99347.75;128235;1085;102054;-83
2023/07/25 10:21:44;;;;;;;15.27;8.20;;;;;;;35.99;29.67;99345.46;128825;1086;101847;-86
2023/07/25 10:24:17;;;;;;;16.53;7.73;;;;;;;36.11;29.63;99338.91;128237;1085;101910;-85
2023/07/25 10:26:56;;;;;;;18.80;8.00;;;;;;;36.13;29.62;99341.50;127992;1086;101810;-83
2023/07/25 10:29:50;;;;;;;16.33;8.83;;;;;;;36.14;29.56;99355.02;127448;1086;104156;-82
2023/07/25 10:32:42;;;;;;;18.20;7.90;;;;;;;36.14;29.83;99355.02;127571;1086;101995;-84
2023/07/25 10:39:26;;;;;;;16.33;7.90;;;;;;;36.14;29.64;99367.81;128017;1086;101918;-85
2023/07/25 10:42:00;;;;;;;17.03;8.13;;;;;;;36.14;29.69;99365.08;128279;1086;101434;-81
2023/07/25 10:44:42;;;;;;;18.17;8.13;;;;;;;36.07;29.05;99362.02;128641;1085;102106;-83
2023/07/25 10:47:44;;;;;;;19.23;8.43;;;;;;;36.06;29.22;99354.84;128827;1085;101758;-82
2023/07/25 10:50:25;;;;;;;18.00;8.50;;;;;;;36.08;28.91;99350.10;127332;1089;102641;-85
2023/07/25 10:53:24;;;;;;;15.73;7.97;;;;;;;36.11;28.84;99349.83;127401;1086;104318;-84
2023/07/25 10:56:13;;;;;;;15.70;7.67;;;;;;;36.19;28.91;99345.56;128313;1085;104123;-79
2023/07/25 10:59:05;;;;;;;14.67;7.40;;;;;;;36.20;28.90;99356.34;128286;1085;101660;-82
2023/07/25 11:01:38;;;;;;;13.50;7.13;;;;;;;36.17;28.97;99342.97;127855;1086;104180;-81
2023/07/25 11:04:53;;;;;;;19.10;8.17;;;;;;;36.18;28.79;99352.86;128394;1085;101790;-80
2023/07/25 11:07:38;;;;;;;14.97;7.10;;;;;;;36.10;28.48;99348.09;127265;1086;102115;-83
2023/07/25 11:10:33;;;;;;;13.60;6.97;;;;;;;35.98;29.05;99340.99;128214;1086;101548;-82
2023/07/25 11:16:21;;;;;;;14.90;6.57;;;;;;;35.88;28.90;99331.92;128246;1085;102105;-78
2023/07/25 11:18:54;;;;;;;14.50;6.43;;;;;;;35.87;28.91;99336.48;127678;1086;103509;-80
2023/07/25 11:21:44;;;;;;;15.23;6.50;;;;;;;35.90;28.96;99327.17;127077;1086;101942;-80
2023/07/25 11:24:24;;;;;;;12.67;5.97;;;;;;;35.93;28.81;99325.03;126490;1086;104204;-82
2023/07/25 11:27:13;;;;;;;16.23;6.67;;;;;;;35.93;28.73;99327.76;127734;1087;101777;-87
2023/07/25 11:29:47;;;;;;;13.87;5.90;;;;;;;35.97;28.62;99321.03;127138;1086;103346;-83
2023/07/25 11:32:21;;;;;;;12.37;6.10;;;;;;;36.04;28.79;99325.95;128090;1085;102530;-85
2023/07/25 11:35:24;;;;;;;15.30;6.43;;;;;;;36.01;28.28;99321.61;126696;1086;102100;-83
2023/07/25 11:38:11;;;;;;;15.50;6.20;;;;;;;36.03;28.87;99305.09;127568;1086;101790;-78
2023/07/25 11:40:49;;;;;;;12.57;5.93;;;;;;;35.98;28.74;99303.67;126688;1086;104248;-78
2023/07/25 11:43:21;;;;;;;15.23;6.60;;;;;;;35.96;28.54;99300.19;126553;1086;104181;-76
2023/07/25 11:45:54;;;;;;;13.47;5.57;;;;;;;35.96;28.65;99308.37;126132;1086;104254;-79
2023/07/25 11:48:26;;;;;;;13.20;6.00;;;;;;;36.01;28.44;99298.92;126983;1086;104034;-77